sensor_id;sensor_type;location;lat;lon;timestamp;P1;durP1;ratioP1;P2;durP2;ratioP2
32633;SDS011;19043;51.012;5.648;2022-10-14T00:00:52;15.25;;;12.68;;
32633;SDS011;19043;51.012;5.648;2022-10-14T00:03:17;18.10;;;12.65;;
32633;SDS011;19043;51.012;5.648;2022-10-14T00:05:43;18.77;;;12.07;;
32633;SDS011;19043;51.012;5.648;2022-10-14T00:08:08;17.90;;;12.57;;
32633;SDS011;19043;51.012;5.648;2022-10-14T00:10:35;19.67;;;14.18;;
32633;SDS011;19043;51.012;5.648;2022-10-14T00:13:00;18.98;;;13.05;;
32633;SDS011;19043;51.012;5.648;2022-10-14T00:15:26;13.75;;;11.55;;
32633;SDS011;19043;51.012;5.648;2022-10-14T00:17:51;17.98;;;13.43;;
32633;SDS011;19043;51.012;5.648;2022-10-14T00:20:16;14.40;;;12.73;;
32633;SDS011;19043;51.012;5.648;2022-10-14T00:22:41;18.05;;;13.63;;
32633;SDS011;19043;51.012;5.648;2022-10-14T00:25:07;18.35;;;13.82;;
32633;SDS011;19043;51.012;5.648;2022-10-14T00:27:32;17.85;;;13.52;;
32633;SDS011;19043;51.012;5.648;2022-10-14T00:29:57;22.77;;;13.77;;
32633;SDS011;19043;51.012;5.648;2022-10-14T00:32:22;17.38;;;13.93;;
32633;SDS011;19043;51.012;5.648;2022-10-14T00:34:48;20.10;;;13.88;;
32633;SDS011;19043;51.012;5.648;2022-10-14T00:37:13;17.53;;;14.50;;
32633;SDS011;19043;51.012;5.648;2022-10-14T00:39:38;14.95;;;12.95;;
32633;SDS011;19043;51.012;5.648;2022-10-14T00:42:03;21.73;;;14.38;;
32633;SDS011;19043;51.012;5.648;2022-10-14T00:46:54;16.80;;;13.50;;
32633;SDS011;19043;51.012;5.648;2022-10-14T00:49:38;15.50;;;13.32;;
32633;SDS011;19043;51.012;5.648;2022-10-14T00:52:14;17.98;;;13.48;;
32633;SDS011;19043;51.012;5.648;2022-10-14T00:54:45;18.95;;;13.57;;
32633;SDS011;19043;51.012;5.648;2022-10-14T00:57:12;15.60;;;13.98;;
32633;SDS011;19043;51.012;5.648;2022-10-14T00:59:38;16.00;;;13.15;;
32633;SDS011;19043;51.012;5.648;2022-10-14T01:02:03;22.92;;;16.02;;
32633;SDS011;19043;51.012;5.648;2022-10-14T01:04:28;17.70;;;14.10;;
32633;SDS011;19043;51.012;5.648;2022-10-14T01:09:25;15.20;;;13.63;;
32633;SDS011;19043;51.012;5.648;2022-10-14T01:11:57;17.17;;;14.50;;
32633;SDS011;19043;51.012;5.648;2022-10-14T01:14:48;18.85;;;14.10;;
32633;SDS011;19043;51.012;5.648;2022-10-14T01:17:12;17.92;;;14.05;;
32633;SDS011;19043;51.012;5.648;2022-10-14T01:27:19;13.90;;;11.95;;
32633;SDS011;19043;51.012;5.648;2022-10-14T01:30:00;20.65;;;13.30;;
32633;SDS011;19043;51.012;5.648;2022-10-14T01:32:47;16.77;;;12.52;;
32633;SDS011;19043;51.012;5.648;2022-10-14T01:35:22;16.23;;;11.68;;
32633;SDS011;19043;51.012;5.648;2022-10-14T01:37:53;16.95;;;12.30;;
32633;SDS011;19043;51.012;5.648;2022-10-14T01:40:21;15.63;;;12.75;;
32633;SDS011;19043;51.012;5.648;2022-10-14T01:42:49;17.55;;;11.50;;
32633;SDS011;19043;51.012;5.648;2022-10-14T01:45:19;16.75;;;12.38;;
32633;SDS011;19043;51.012;5.648;2022-10-14T01:47:45;13.80;;;11.48;;
32633;SDS011;19043;51.012;5.648;2022-10-14T01:50:14;20.20;;;11.55;;
32633;SDS011;19043;51.012;5.648;2022-10-14T01:52:43;15.23;;;11.10;;
32633;SDS011;19043;51.012;5.648;2022-10-14T01:55:12;14.05;;;11.75;;
32633;SDS011;19043;51.012;5.648;2022-10-14T01:57:39;13.88;;;10.07;;
32633;SDS011;19043;51.012;5.648;2022-10-14T02:00:05;13.63;;;10.35;;
32633;SDS011;19043;51.012;5.648;2022-10-14T02:02:34;13.68;;;10.70;;
32633;SDS011;19043;51.012;5.648;2022-10-14T02:04:59;12.73;;;10.85;;
32633;SDS011;19043;51.012;5.648;2022-10-14T02:07:26;11.50;;;10.10;;
32633;SDS011;19043;51.012;5.648;2022-10-14T02:09:56;12.25;;;9.50;;
32633;SDS011;19043;51.012;5.648;2022-10-14T02:17:20;11.93;;;10.17;;
32633;SDS011;19043;51.012;5.648;2022-10-14T02:22:34;17.05;;;10.48;;
32633;SDS011;19043;51.012;5.648;2022-10-14T02:25:44;11.55;;;9.48;;
32633;SDS011;19043;51.012;5.648;2022-10-14T02:27:50;11.13;;;9.55;;
32633;SDS011;19043;51.012;5.648;2022-10-14T02:30:16;10.50;;;8.00;;
32633;SDS011;19043;51.012;5.648;2022-10-14T02:32:41;17.02;;;10.55;;
32633;SDS011;19043;51.012;5.648;2022-10-14T02:35:08;10.55;;;8.18;;
32633;SDS011;19043;51.012;5.648;2022-10-14T02:37:34;12.30;;;8.25;;
32633;SDS011;19043;51.012;5.648;2022-10-14T02:40:20;14.95;;;8.95;;
32633;SDS011;19043;51.012;5.648;2022-10-14T02:42:47;9.00;;;7.68;;
32633;SDS011;19043;51.012;5.648;2022-10-14T02:45:13;12.25;;;8.65;;
32633;SDS011;19043;51.012;5.648;2022-10-14T02:47:38;11.60;;;8.80;;
32633;SDS011;19043;51.012;5.648;2022-10-14T02:50:03;10.40;;;7.88;;
32633;SDS011;19043;51.012;5.648;2022-10-14T02:52:29;8.80;;;7.88;;
32633;SDS011;19043;51.012;5.648;2022-10-14T02:54:54;9.98;;;7.07;;
32633;SDS011;19043;51.012;5.648;2022-10-14T02:57:19;12.40;;;8.27;;
32633;SDS011;19043;51.012;5.648;2022-10-14T02:59:44;10.10;;;7.85;;
32633;SDS011;19043;51.012;5.648;2022-10-14T03:02:10;9.23;;;8.02;;
32633;SDS011;19043;51.012;5.648;2022-10-14T03:04:35;12.63;;;8.10;;
32633;SDS011;19043;51.012;5.648;2022-10-14T03:07:01;9.00;;;7.23;;
32633;SDS011;19043;51.012;5.648;2022-10-14T03:09:26;10.35;;;7.25;;
32633;SDS011;19043;51.012;5.648;2022-10-14T03:11:51;8.95;;;7.47;;
32633;SDS011;19043;51.012;5.648;2022-10-14T03:14:17;7.87;;;6.77;;
32633;SDS011;19043;51.012;5.648;2022-10-14T03:16:42;9.40;;;7.53;;
32633;SDS011;19043;51.012;5.648;2022-10-14T03:19:07;10.25;;;7.75;;
32633;SDS011;19043;51.012;5.648;2022-10-14T03:21:33;7.85;;;6.95;;
32633;SDS011;19043;51.012;5.648;2022-10-14T03:23:58;13.30;;;8.07;;
32633;SDS011;19043;51.012;5.648;2022-10-14T03:26:25;10.23;;;7.55;;
32633;SDS011;19043;51.012;5.648;2022-10-14T03:28:50;12.93;;;7.38;;
32633;SDS011;19043;51.012;5.648;2022-10-14T03:31:16;9.23;;;7.37;;
32633;SDS011;19043;51.012;5.648;2022-10-14T03:33:41;12.65;;;6.28;;
32633;SDS011;19043;51.012;5.648;2022-10-14T03:36:06;8.53;;;6.77;;
32633;SDS011;19043;51.012;5.648;2022-10-14T03:38:31;7.95;;;7.15;;
32633;SDS011;19043;51.012;5.648;2022-10-14T03:40:57;11.75;;;6.82;;
32633;SDS011;19043;51.012;5.648;2022-10-14T03:43:22;9.15;;;7.05;;
32633;SDS011;19043;51.012;5.648;2022-10-14T03:45:47;8.25;;;7.45;;
32633;SDS011;19043;51.012;5.648;2022-10-14T03:48:12;12.35;;;6.97;;
32633;SDS011;19043;51.012;5.648;2022-10-14T03:50:38;10.80;;;7.13;;
32633;SDS011;19043;51.012;5.648;2022-10-14T03:53:03;14.87;;;8.43;;
32633;SDS011;19043;51.012;5.648;2022-10-14T03:55:28;8.98;;;7.55;;
32633;SDS011;19043;51.012;5.648;2022-10-14T03:57:54;7.88;;;6.97;;
32633;SDS011;19043;51.012;5.648;2022-10-14T04:00:19;9.15;;;7.20;;
32633;SDS011;19043;51.012;5.648;2022-10-14T04:02:44;11.20;;;7.65;;
32633;SDS011;19043;51.012;5.648;2022-10-14T04:05:10;9.60;;;6.80;;
32633;SDS011;19043;51.012;5.648;2022-10-14T04:07:35;12.70;;;7.60;;
32633;SDS011;19043;51.012;5.648;2022-10-14T04:10:00;8.43;;;7.28;;
32633;SDS011;19043;51.012;5.648;2022-10-14T04:12:25;17.80;;;7.45;;
32633;SDS011;19043;51.012;5.648;2022-10-14T04:14:51;8.32;;;7.53;;
32633;SDS011;19043;51.012;5.648;2022-10-14T04:17:16;10.48;;;7.65;;
32633;SDS011;19043;51.012;5.648;2022-10-14T04:19:42;9.93;;;7.28;;
32633;SDS011;19043;51.012;5.648;2022-10-14T04:22:07;10.43;;;8.20;;
32633;SDS011;19043;51.012;5.648;2022-10-14T04:24:33;9.85;;;7.68;;
32633;SDS011;19043;51.012;5.648;2022-10-14T04:26:58;9.67;;;8.67;;
32633;SDS011;19043;51.012;5.648;2022-10-14T04:29:24;12.30;;;8.60;;
32633;SDS011;19043;51.012;5.648;2022-10-14T04:31:49;13.95;;;8.60;;
32633;SDS011;19043;51.012;5.648;2022-10-14T04:34:14;10.93;;;7.83;;
32633;SDS011;19043;51.012;5.648;2022-10-14T04:36:39;9.88;;;8.10;;
32633;SDS011;19043;51.012;5.648;2022-10-14T04:39:05;11.63;;;8.45;;
32633;SDS011;19043;51.012;5.648;2022-10-14T04:41:30;9.48;;;8.40;;
32633;SDS011;19043;51.012;5.648;2022-10-14T04:43:55;10.52;;;8.00;;
32633;SDS011;19043;51.012;5.648;2022-10-14T04:46:21;13.32;;;8.88;;
32633;SDS011;19043;51.012;5.648;2022-10-14T04:48:46;9.32;;;8.43;;
32633;SDS011;19043;51.012;5.648;2022-10-14T04:51:12;13.00;;;9.18;;
32633;SDS011;19043;51.012;5.648;2022-10-14T04:53:37;11.98;;;9.93;;
32633;SDS011;19043;51.012;5.648;2022-10-14T04:56:02;10.65;;;8.60;;
32633;SDS011;19043;51.012;5.648;2022-10-14T04:58:27;10.63;;;8.70;;
32633;SDS011;19043;51.012;5.648;2022-10-14T05:00:53;14.10;;;8.17;;
32633;SDS011;19043;51.012;5.648;2022-10-14T05:03:19;10.27;;;8.45;;
32633;SDS011;19043;51.012;5.648;2022-10-14T05:05:44;11.20;;;9.18;;
32633;SDS011;19043;51.012;5.648;2022-10-14T05:08:10;8.85;;;7.40;;
32633;SDS011;19043;51.012;5.648;2022-10-14T05:10:35;11.95;;;8.80;;
32633;SDS011;19043;51.012;5.648;2022-10-14T05:13:00;13.13;;;8.82;;
32633;SDS011;19043;51.012;5.648;2022-10-14T05:15:26;9.90;;;8.00;;
32633;SDS011;19043;51.012;5.648;2022-10-14T05:17:51;12.77;;;8.80;;
32633;SDS011;19043;51.012;5.648;2022-10-14T05:20:16;9.13;;;7.80;;
32633;SDS011;19043;51.012;5.648;2022-10-14T05:22:42;12.90;;;9.07;;
32633;SDS011;19043;51.012;5.648;2022-10-14T05:25:07;10.50;;;9.40;;
32633;SDS011;19043;51.012;5.648;2022-10-14T05:27:33;9.85;;;8.85;;
32633;SDS011;19043;51.012;5.648;2022-10-14T05:29:58;9.55;;;8.57;;
32633;SDS011;19043;51.012;5.648;2022-10-14T05:32:23;11.23;;;8.95;;
32633;SDS011;19043;51.012;5.648;2022-10-14T05:34:49;11.47;;;8.37;;
32633;SDS011;19043;51.012;5.648;2022-10-14T05:37:14;9.67;;;8.67;;
32633;SDS011;19043;51.012;5.648;2022-10-14T05:39:39;13.20;;;9.00;;
32633;SDS011;19043;51.012;5.648;2022-10-14T05:42:04;11.83;;;9.13;;
32633;SDS011;19043;51.012;5.648;2022-10-14T05:44:29;11.20;;;8.68;;
32633;SDS011;19043;51.012;5.648;2022-10-14T05:46:55;12.00;;;9.75;;
32633;SDS011;19043;51.012;5.648;2022-10-14T05:49:20;11.88;;;9.15;;
32633;SDS011;19043;51.012;5.648;2022-10-14T05:51:45;9.50;;;8.10;;
32633;SDS011;19043;51.012;5.648;2022-10-14T05:54:11;12.10;;;9.27;;
32633;SDS011;19043;51.012;5.648;2022-10-14T05:56:36;8.55;;;7.20;;
32633;SDS011;19043;51.012;5.648;2022-10-14T05:59:01;14.68;;;9.30;;
32633;SDS011;19043;51.012;5.648;2022-10-14T06:01:27;12.75;;;8.75;;
32633;SDS011;19043;51.012;5.648;2022-10-14T06:03:52;15.17;;;8.97;;
32633;SDS011;19043;51.012;5.648;2022-10-14T06:06:17;9.38;;;8.48;;
32633;SDS011;19043;51.012;5.648;2022-10-14T06:08:43;10.73;;;8.57;;
32633;SDS011;19043;51.012;5.648;2022-10-14T06:11:09;11.75;;;9.55;;
32633;SDS011;19043;51.012;5.648;2022-10-14T06:13:34;18.67;;;8.45;;
32633;SDS011;19043;51.012;5.648;2022-10-14T06:16:03;11.10;;;8.80;;
32633;SDS011;19043;51.012;5.648;2022-10-14T06:18:29;9.07;;;7.85;;
32633;SDS011;19043;51.012;5.648;2022-10-14T06:20:54;9.82;;;8.23;;
32633;SDS011;19043;51.012;5.648;2022-10-14T06:23:20;12.30;;;8.98;;
32633;SDS011;19043;51.012;5.648;2022-10-14T06:25:45;12.02;;;9.32;;
32633;SDS011;19043;51.012;5.648;2022-10-14T06:28:10;11.23;;;8.85;;
32633;SDS011;19043;51.012;5.648;2022-10-14T06:30:35;9.55;;;8.43;;
32633;SDS011;19043;51.012;5.648;2022-10-14T06:33:01;12.45;;;9.90;;
32633;SDS011;19043;51.012;5.648;2022-10-14T06:35:26;10.07;;;8.18;;
32633;SDS011;19043;51.012;5.648;2022-10-14T06:37:51;11.40;;;8.20;;
32633;SDS011;19043;51.012;5.648;2022-10-14T06:40:17;14.68;;;9.15;;
32633;SDS011;19043;51.012;5.648;2022-10-14T06:42:42;13.68;;;9.13;;
32633;SDS011;19043;51.012;5.648;2022-10-14T06:45:07;10.18;;;8.45;;
32633;SDS011;19043;51.012;5.648;2022-10-14T06:47:33;10.85;;;8.07;;
32633;SDS011;19043;51.012;5.648;2022-10-14T06:49:58;11.98;;;7.90;;
32633;SDS011;19043;51.012;5.648;2022-10-14T06:52:23;10.40;;;8.63;;
32633;SDS011;19043;51.012;5.648;2022-10-14T06:54:49;13.45;;;8.85;;
32633;SDS011;19043;51.012;5.648;2022-10-14T06:57:14;16.15;;;8.63;;
32633;SDS011;19043;51.012;5.648;2022-10-14T06:59:39;11.38;;;7.93;;
32633;SDS011;19043;51.012;5.648;2022-10-14T07:02:05;10.85;;;8.52;;
32633;SDS011;19043;51.012;5.648;2022-10-14T07:04:30;8.80;;;7.40;;
32633;SDS011;19043;51.012;5.648;2022-10-14T07:06:55;16.15;;;8.57;;
32633;SDS011;19043;51.012;5.648;2022-10-14T07:09:22;9.25;;;8.25;;
32633;SDS011;19043;51.012;5.648;2022-10-14T07:11:47;10.30;;;7.32;;
32633;SDS011;19043;51.012;5.648;2022-10-14T07:14:13;10.85;;;8.95;;
32633;SDS011;19043;51.012;5.648;2022-10-14T07:16:38;11.77;;;7.38;;
32633;SDS011;19043;51.012;5.648;2022-10-14T07:19:03;9.70;;;7.38;;
32633;SDS011;19043;51.012;5.648;2022-10-14T07:21:28;11.07;;;7.20;;
32633;SDS011;19043;51.012;5.648;2022-10-14T07:23:54;8.82;;;7.57;;
32633;SDS011;19043;51.012;5.648;2022-10-14T07:26:20;10.00;;;7.70;;
32633;SDS011;19043;51.012;5.648;2022-10-14T07:28:45;11.40;;;7.53;;
32633;SDS011;19043;51.012;5.648;2022-10-14T07:31:10;10.98;;;7.28;;
32633;SDS011;19043;51.012;5.648;2022-10-14T07:33:37;12.45;;;8.05;;
32633;SDS011;19043;51.012;5.648;2022-10-14T07:36:07;10.27;;;7.78;;
32633;SDS011;19043;51.012;5.648;2022-10-14T07:38:33;9.38;;;7.63;;
32633;SDS011;19043;51.012;5.648;2022-10-14T07:40:59;9.27;;;6.75;;
32633;SDS011;19043;51.012;5.648;2022-10-14T07:43:25;10.25;;;7.57;;
32633;SDS011;19043;51.012;5.648;2022-10-14T07:45:50;7.60;;;6.55;;
32633;SDS011;19043;51.012;5.648;2022-10-14T07:48:16;7.88;;;6.50;;
32633;SDS011;19043;51.012;5.648;2022-10-14T07:50:41;8.68;;;6.65;;
32633;SDS011;19043;51.012;5.648;2022-10-14T07:53:06;8.35;;;6.63;;
32633;SDS011;19043;51.012;5.648;2022-10-14T07:55:32;16.42;;;6.97;;
32633;SDS011;19043;51.012;5.648;2022-10-14T07:57:57;10.73;;;7.53;;
32633;SDS011;19043;51.012;5.648;2022-10-14T08:00:22;16.92;;;7.68;;
32633;SDS011;19043;51.012;5.648;2022-10-14T08:02:47;10.38;;;7.15;;
32633;SDS011;19043;51.012;5.648;2022-10-14T08:05:13;13.87;;;7.87;;
32633;SDS011;19043;51.012;5.648;2022-10-14T08:07:38;9.20;;;7.47;;
32633;SDS011;19043;51.012;5.648;2022-10-14T08:10:03;16.63;;;7.20;;
32633;SDS011;19043;51.012;5.648;2022-10-14T08:12:28;10.27;;;7.38;;
32633;SDS011;19043;51.012;5.648;2022-10-14T08:14:54;16.65;;;7.13;;
32633;SDS011;19043;51.012;5.648;2022-10-14T08:17:20;8.57;;;7.40;;
32633;SDS011;19043;51.012;5.648;2022-10-14T08:19:45;9.03;;;7.20;;
32633;SDS011;19043;51.012;5.648;2022-10-14T08:22:11;9.13;;;7.10;;
32633;SDS011;19043;51.012;5.648;2022-10-14T08:24:36;12.27;;;6.43;;
32633;SDS011;19043;51.012;5.648;2022-10-14T08:27:01;9.93;;;6.70;;
32633;SDS011;19043;51.012;5.648;2022-10-14T08:29:26;7.70;;;6.65;;
32633;SDS011;19043;51.012;5.648;2022-10-14T08:31:52;10.32;;;6.68;;
32633;SDS011;19043;51.012;5.648;2022-10-14T08:34:19;9.43;;;6.45;;
32633;SDS011;19043;51.012;5.648;2022-10-14T08:36:46;7.97;;;6.32;;
32633;SDS011;19043;51.012;5.648;2022-10-14T08:39:11;18.58;;;7.10;;
32633;SDS011;19043;51.012;5.648;2022-10-14T08:44:22;8.25;;;6.03;;
32633;SDS011;19043;51.012;5.648;2022-10-14T08:46:49;7.28;;;5.18;;
32633;SDS011;19043;51.012;5.648;2022-10-14T08:49:17;8.93;;;6.00;;
32633;SDS011;19043;51.012;5.648;2022-10-14T08:51:44;8.00;;;5.88;;
32633;SDS011;19043;51.012;5.648;2022-10-14T08:54:13;10.32;;;6.82;;
32633;SDS011;19043;51.012;5.648;2022-10-14T08:56:39;8.13;;;6.13;;
32633;SDS011;19043;51.012;5.648;2022-10-14T08:59:09;9.80;;;6.82;;
32633;SDS011;19043;51.012;5.648;2022-10-14T09:02:12;9.38;;;5.75;;
32633;SDS011;19043;51.012;5.648;2022-10-14T09:04:28;10.68;;;5.82;;
32633;SDS011;19043;51.012;5.648;2022-10-14T09:06:57;8.52;;;6.30;;
32633;SDS011;19043;51.012;5.648;2022-10-14T09:12:01;9.77;;;6.05;;
32633;SDS011;19043;51.012;5.648;2022-10-14T09:14:29;9.48;;;6.45;;
32633;SDS011;19043;51.012;5.648;2022-10-14T09:16:56;8.00;;;6.20;;
32633;SDS011;19043;51.012;5.648;2022-10-14T09:19:30;9.50;;;6.32;;
32633;SDS011;19043;51.012;5.648;2022-10-14T09:21:56;8.98;;;6.85;;
32633;SDS011;19043;51.012;5.648;2022-10-14T09:24:27;12.15;;;6.28;;
32633;SDS011;19043;51.012;5.648;2022-10-14T09:26:56;13.85;;;7.60;;
32633;SDS011;19043;51.012;5.648;2022-10-14T09:29:23;11.32;;;6.93;;
32633;SDS011;19043;51.012;5.648;2022-10-14T09:31:50;8.35;;;6.70;;
32633;SDS011;19043;51.012;5.648;2022-10-14T09:34:17;8.32;;;7.25;;
32633;SDS011;19043;51.012;5.648;2022-10-14T09:36:43;11.07;;;7.38;;
32633;SDS011;19043;51.012;5.648;2022-10-14T09:39:09;8.50;;;6.90;;
32633;SDS011;19043;51.012;5.648;2022-10-14T09:41:35;15.55;;;7.32;;
32633;SDS011;19043;51.012;5.648;2022-10-14T09:44:20;9.35;;;7.25;;
32633;SDS011;19043;51.012;5.648;2022-10-14T09:47:04;9.57;;;7.85;;
32633;SDS011;19043;51.012;5.648;2022-10-14T09:49:33;10.90;;;8.50;;
32633;SDS011;19043;51.012;5.648;2022-10-14T09:51:59;10.60;;;8.73;;
32633;SDS011;19043;51.012;5.648;2022-10-14T09:54:26;13.13;;;8.30;;
32633;SDS011;19043;51.012;5.648;2022-10-14T09:57:01;10.75;;;8.70;;
32633;SDS011;19043;51.012;5.648;2022-10-14T09:59:27;13.88;;;9.50;;
32633;SDS011;19043;51.012;5.648;2022-10-14T10:01:56;11.40;;;8.70;;
32633;SDS011;19043;51.012;5.648;2022-10-14T10:06:56;9.90;;;7.93;;
32633;SDS011;19043;51.012;5.648;2022-10-14T10:09:21;11.40;;;9.15;;
32633;SDS011;19043;51.012;5.648;2022-10-14T10:11:46;11.35;;;7.65;;
32633;SDS011;19043;51.012;5.648;2022-10-14T10:14:14;13.38;;;9.05;;
32633;SDS011;19043;51.012;5.648;2022-10-14T10:16:40;9.50;;;8.35;;
32633;SDS011;19043;51.012;5.648;2022-10-14T10:21:51;10.07;;;8.23;;
32633;SDS011;19043;51.012;5.648;2022-10-14T10:24:17;9.70;;;8.70;;
32633;SDS011;19043;51.012;5.648;2022-10-14T10:26:44;8.90;;;7.15;;
32633;SDS011;19043;51.012;5.648;2022-10-14T10:29:20;14.45;;;8.43;;
32633;SDS011;19043;51.012;5.648;2022-10-14T10:34:51;11.75;;;8.27;;
32633;SDS011;19043;51.012;5.648;2022-10-14T10:37:25;10.48;;;7.53;;
32633;SDS011;19043;51.012;5.648;2022-10-14T10:40:02;9.15;;;7.63;;
32633;SDS011;19043;51.012;5.648;2022-10-14T10:42:33;7.82;;;6.47;;
32633;SDS011;19043;51.012;5.648;2022-10-14T10:45:15;9.93;;;6.40;;
32633;SDS011;19043;51.012;5.648;2022-10-14T10:47:48;9.65;;;7.25;;
32633;SDS011;19043;51.012;5.648;2022-10-14T10:55:17;11.05;;;6.43;;
32633;SDS011;19043;51.012;5.648;2022-10-14T11:00:17;9.73;;;6.32;;
32633;SDS011;19043;51.012;5.648;2022-10-14T11:10:52;10.25;;;6.00;;
32633;SDS011;19043;51.012;5.648;2022-10-14T11:13:45;7.25;;;6.45;;
32633;SDS011;19043;51.012;5.648;2022-10-14T11:16:25;10.27;;;6.05;;
32633;SDS011;19043;51.012;5.648;2022-10-14T11:18:56;9.25;;;6.20;;
32633;SDS011;19043;51.012;5.648;2022-10-14T11:22:10;9.98;;;6.75;;
32633;SDS011;19043;51.012;5.648;2022-10-14T11:27:08;11.50;;;6.30;;
32633;SDS011;19043;51.012;5.648;2022-10-14T11:29:51;9.85;;;6.78;;
32633;SDS011;19043;51.012;5.648;2022-10-14T11:45:59;7.35;;;6.65;;
32633;SDS011;19043;51.012;5.648;2022-10-14T11:50:55;8.95;;;6.57;;
32633;SDS011;19043;51.012;5.648;2022-10-14T11:53:26;10.00;;;6.22;;
32633;SDS011;19043;51.012;5.648;2022-10-14T11:58:39;9.68;;;5.82;;
32633;SDS011;19043;51.012;5.648;2022-10-14T12:01:07;8.57;;;6.50;;
32633;SDS011;19043;51.012;5.648;2022-10-14T12:06:03;7.78;;;5.47;;
32633;SDS011;19043;51.012;5.648;2022-10-14T12:11:00;5.17;;;4.47;;
32633;SDS011;19043;51.012;5.648;2022-10-14T12:13:46;8.15;;;5.55;;
32633;SDS011;19043;51.012;5.648;2022-10-14T12:16:12;8.48;;;4.43;;
32633;SDS011;19043;51.012;5.648;2022-10-14T12:18:38;9.50;;;5.03;;
32633;SDS011;19043;51.012;5.648;2022-10-14T12:25:56;5.97;;;4.33;;
32633;SDS011;19043;51.012;5.648;2022-10-14T12:28:25;6.78;;;5.18;;
32633;SDS011;19043;51.012;5.648;2022-10-14T12:30:50;11.55;;;5.57;;
32633;SDS011;19043;51.012;5.648;2022-10-14T12:33:15;6.03;;;4.60;;
32633;SDS011;19043;51.012;5.648;2022-10-14T12:38:09;6.80;;;4.95;;
32633;SDS011;19043;51.012;5.648;2022-10-14T12:40:35;7.18;;;4.82;;
32633;SDS011;19043;51.012;5.648;2022-10-14T12:43:10;5.57;;;4.03;;
32633;SDS011;19043;51.012;5.648;2022-10-14T12:45:37;6.05;;;4.90;;
32633;SDS011;19043;51.012;5.648;2022-10-14T12:48:17;6.15;;;4.95;;
32633;SDS011;19043;51.012;5.648;2022-10-14T12:50:44;8.07;;;4.22;;
32633;SDS011;19043;51.012;5.648;2022-10-14T12:53:29;6.32;;;4.07;;
32633;SDS011;19043;51.012;5.648;2022-10-14T12:55:59;6.03;;;4.70;;
32633;SDS011;19043;51.012;5.648;2022-10-14T13:00:55;6.63;;;4.97;;
32633;SDS011;19043;51.012;5.648;2022-10-14T13:03:23;6.68;;;4.80;;
32633;SDS011;19043;51.012;5.648;2022-10-14T13:05:50;5.80;;;4.03;;
32633;SDS011;19043;51.012;5.648;2022-10-14T13:10:48;6.35;;;4.88;;
32633;SDS011;19043;51.012;5.648;2022-10-14T13:15:58;8.93;;;5.15;;
32633;SDS011;19043;51.012;5.648;2022-10-14T13:20:55;4.88;;;3.22;;
32633;SDS011;19043;51.012;5.648;2022-10-14T13:31:28;5.15;;;4.10;;
32633;SDS011;19043;51.012;5.648;2022-10-14T13:34:01;10.18;;;4.32;;
32633;SDS011;19043;51.012;5.648;2022-10-14T13:36:32;5.15;;;3.97;;
32633;SDS011;19043;51.012;5.648;2022-10-14T13:39:00;6.60;;;4.63;;
32633;SDS011;19043;51.012;5.648;2022-10-14T13:41:26;5.82;;;4.63;;
32633;SDS011;19043;51.012;5.648;2022-10-14T13:43:53;6.07;;;4.88;;
32633;SDS011;19043;51.012;5.648;2022-10-14T13:46:26;6.18;;;4.15;;
32633;SDS011;19043;51.012;5.648;2022-10-14T13:48:53;8.10;;;4.90;;
32633;SDS011;19043;51.012;5.648;2022-10-14T13:51:24;12.85;;;5.75;;
32633;SDS011;19043;51.012;5.648;2022-10-14T13:53:50;5.55;;;4.47;;
32633;SDS011;19043;51.012;5.648;2022-10-14T13:59:19;6.43;;;4.93;;
32633;SDS011;19043;51.012;5.648;2022-10-14T14:01:47;7.13;;;4.80;;
32633;SDS011;19043;51.012;5.648;2022-10-14T14:04:15;6.47;;;5.03;;
32633;SDS011;19043;51.012;5.648;2022-10-14T14:06:44;11.50;;;6.13;;
32633;SDS011;19043;51.012;5.648;2022-10-14T14:09:13;5.53;;;5.03;;
32633;SDS011;19043;51.012;5.648;2022-10-14T14:11:42;6.68;;;5.25;;
32633;SDS011;19043;51.012;5.648;2022-10-14T14:14:17;4.25;;;3.15;;
32633;SDS011;19043;51.012;5.648;2022-10-14T14:16:53;4.28;;;2.40;;
32633;SDS011;19043;51.012;5.648;2022-10-14T14:19:31;4.20;;;2.38;;
32633;SDS011;19043;51.012;5.648;2022-10-14T14:24:31;3.72;;;1.42;;
32633;SDS011;19043;51.012;5.648;2022-10-14T14:26:58;2.55;;;1.33;;
32633;SDS011;19043;51.012;5.648;2022-10-14T14:29:25;2.78;;;1.55;;
32633;SDS011;19043;51.012;5.648;2022-10-14T14:31:50;2.40;;;1.30;;
32633;SDS011;19043;51.012;5.648;2022-10-14T14:34:17;2.30;;;1.30;;
32633;SDS011;19043;51.012;5.648;2022-10-14T14:36:42;2.60;;;1.45;;
32633;SDS011;19043;51.012;5.648;2022-10-14T14:39:21;3.28;;;1.30;;
32633;SDS011;19043;51.012;5.648;2022-10-14T14:41:50;2.42;;;1.55;;
32633;SDS011;19043;51.012;5.648;2022-10-14T14:44:18;2.85;;;1.40;;
32633;SDS011;19043;51.012;5.648;2022-10-14T14:46:43;9.10;;;2.05;;
32633;SDS011;19043;51.012;5.648;2022-10-14T14:49:16;2.92;;;2.00;;
32633;SDS011;19043;51.012;5.648;2022-10-14T14:51:42;4.25;;;1.80;;
32633;SDS011;19043;51.012;5.648;2022-10-14T14:54:11;2.55;;;1.67;;
32633;SDS011;19043;51.012;5.648;2022-10-14T14:56:39;4.15;;;1.88;;
32633;SDS011;19043;51.012;5.648;2022-10-14T15:04:06;3.40;;;1.80;;
32633;SDS011;19043;51.012;5.648;2022-10-14T15:06:38;3.47;;;1.73;;
32633;SDS011;19043;51.012;5.648;2022-10-14T15:09:10;3.90;;;1.67;;
32633;SDS011;19043;51.012;5.648;2022-10-14T15:11:49;4.10;;;1.80;;
32633;SDS011;19043;51.012;5.648;2022-10-14T15:14:28;2.83;;;1.58;;
32633;SDS011;19043;51.012;5.648;2022-10-14T15:16:54;11.25;;;1.65;;
32633;SDS011;19043;51.012;5.648;2022-10-14T15:21:45;2.97;;;1.87;;
32633;SDS011;19043;51.012;5.648;2022-10-14T15:24:14;3.75;;;2.10;;
32633;SDS011;19043;51.012;5.648;2022-10-14T15:26:40;4.25;;;2.40;;
32633;SDS011;19043;51.012;5.648;2022-10-14T15:29:18;4.22;;;2.20;;
32633;SDS011;19043;51.012;5.648;2022-10-14T15:32:10;5.00;;;3.00;;
32633;SDS011;19043;51.012;5.648;2022-10-14T15:34:29;3.97;;;2.55;;
32633;SDS011;19043;51.012;5.648;2022-10-14T15:36:54;8.15;;;7.22;;
32633;SDS011;19043;51.012;5.648;2022-10-14T15:39:20;9.23;;;6.90;;
32633;SDS011;19043;51.012;5.648;2022-10-14T15:41:45;7.65;;;5.10;;
32633;SDS011;19043;51.012;5.648;2022-10-14T15:44:11;7.63;;;5.80;;
32633;SDS011;19043;51.012;5.648;2022-10-14T15:46:36;8.85;;;3.55;;
32633;SDS011;19043;51.012;5.648;2022-10-14T15:49:31;4.80;;;2.88;;
32633;SDS011;19043;51.012;5.648;2022-10-14T15:51:57;6.30;;;3.60;;
32633;SDS011;19043;51.012;5.648;2022-10-14T15:54:22;3.78;;;2.72;;
32633;SDS011;19043;51.012;5.648;2022-10-14T15:56:51;3.60;;;2.58;;
32633;SDS011;19043;51.012;5.648;2022-10-14T15:59:16;4.90;;;3.17;;
32633;SDS011;19043;51.012;5.648;2022-10-14T16:01:43;4.22;;;3.08;;
32633;SDS011;19043;51.012;5.648;2022-10-14T16:04:14;6.45;;;2.97;;
32633;SDS011;19043;51.012;5.648;2022-10-14T16:06:39;4.75;;;3.17;;
32633;SDS011;19043;51.012;5.648;2022-10-14T16:09:05;4.03;;;3.20;;
32633;SDS011;19043;51.012;5.648;2022-10-14T16:11:31;4.50;;;3.20;;
32633;SDS011;19043;51.012;5.648;2022-10-14T16:13:56;5.43;;;3.70;;
32633;SDS011;19043;51.012;5.648;2022-10-14T16:16:40;4.95;;;3.75;;
32633;SDS011;19043;51.012;5.648;2022-10-14T16:19:05;6.72;;;5.18;;
32633;SDS011;19043;51.012;5.648;2022-10-14T16:21:30;6.70;;;5.47;;
32633;SDS011;19043;51.012;5.648;2022-10-14T16:23:57;7.38;;;4.75;;
32633;SDS011;19043;51.012;5.648;2022-10-14T16:26:25;5.72;;;4.60;;
32633;SDS011;19043;51.012;5.648;2022-10-14T16:28:50;5.43;;;4.15;;
32633;SDS011;19043;51.012;5.648;2022-10-14T16:31:16;6.18;;;4.43;;
32633;SDS011;19043;51.012;5.648;2022-10-14T16:33:41;4.82;;;4.35;;
32633;SDS011;19043;51.012;5.648;2022-10-14T16:36:08;5.63;;;4.80;;